sensor_id;sensor_type;location;lat;lon;timestamp;P1;durP1;ratioP1;P2;durP2;ratioP2
62861;SDS011;48953;53.110;5.592;2022-12-07T00:01:30;5.63;;;0.40;;
62861;SDS011;48953;53.110;5.592;2022-12-07T00:03:57;3.15;;;0.43;;
62861;SDS011;48953;53.110;5.592;2022-12-07T00:06:29;9.63;;;0.52;;
62861;SDS011;48953;53.110;5.592;2022-12-07T00:08:56;3.30;;;0.50;;
62861;SDS011;48953;53.110;5.592;2022-12-07T00:11:22;3.20;;;0.30;;
62861;SDS011;48953;53.110;5.592;2022-12-07T00:13:55;5.15;;;0.63;;
62861;SDS011;48953;53.110;5.592;2022-12-07T00:16:22;6.18;;;0.80;;
62861;SDS011;48953;53.110;5.592;2022-12-07T00:18:48;3.78;;;0.60;;
62861;SDS011;48953;53.110;5.592;2022-12-07T00:21:18;6.68;;;0.55;;
62861;SDS011;48953;53.110;5.592;2022-12-07T00:26:12;6.90;;;1.25;;
62861;SDS011;48953;53.110;5.592;2022-12-07T00:28:39;5.50;;;1.13;;
62861;SDS011;48953;53.110;5.592;2022-12-07T00:31:06;6.13;;;0.80;;
62861;SDS011;48953;53.110;5.592;2022-12-07T00:33:33;8.32;;;0.70;;
62861;SDS011;48953;53.110;5.592;2022-12-07T00:35:59;3.42;;;0.65;;
62861;SDS011;48953;53.110;5.592;2022-12-07T00:38:27;6.22;;;0.82;;
62861;SDS011;48953;53.110;5.592;2022-12-07T00:41:01;5.32;;;0.60;;
62861;SDS011;48953;53.110;5.592;2022-12-07T00:43:27;2.08;;;0.38;;
62861;SDS011;48953;53.110;5.592;2022-12-07T00:45:54;8.40;;;0.80;;
62861;SDS011;48953;53.110;5.592;2022-12-07T00:48:20;4.10;;;0.93;;
62861;SDS011;48953;53.110;5.592;2022-12-07T00:50:46;3.80;;;0.70;;
62861;SDS011;48953;53.110;5.592;2022-12-07T00:53:12;6.20;;;0.82;;
62861;SDS011;48953;53.110;5.592;2022-12-07T00:55:39;9.88;;;1.70;;
62861;SDS011;48953;53.110;5.592;2022-12-07T00:58:05;5.55;;;0.68;;
62861;SDS011;48953;53.110;5.592;2022-12-07T01:00:31;5.80;;;1.15;;
62861;SDS011;48953;53.110;5.592;2022-12-07T01:02:58;5.72;;;0.90;;
62861;SDS011;48953;53.110;5.592;2022-12-07T01:05:24;6.25;;;0.60;;
62861;SDS011;48953;53.110;5.592;2022-12-07T01:07:50;2.28;;;0.45;;
62861;SDS011;48953;53.110;5.592;2022-12-07T01:10:16;3.38;;;0.45;;
62861;SDS011;48953;53.110;5.592;2022-12-07T01:12:42;6.35;;;0.63;;
62861;SDS011;48953;53.110;5.592;2022-12-07T01:15:08;6.43;;;0.80;;
62861;SDS011;48953;53.110;5.592;2022-12-07T01:17:34;5.03;;;1.02;;
62861;SDS011;48953;53.110;5.592;2022-12-07T01:20:01;3.42;;;0.68;;
62861;SDS011;48953;53.110;5.592;2022-12-07T01:22:27;7.90;;;1.63;;
62861;SDS011;48953;53.110;5.592;2022-12-07T01:24:53;3.28;;;0.45;;
62861;SDS011;48953;53.110;5.592;2022-12-07T01:27:18;4.45;;;0.60;;
62861;SDS011;48953;53.110;5.592;2022-12-07T01:29:44;4.43;;;0.70;;
62861;SDS011;48953;53.110;5.592;2022-12-07T01:32:10;7.82;;;1.77;;
62861;SDS011;48953;53.110;5.592;2022-12-07T01:34:37;6.18;;;0.50;;
62861;SDS011;48953;53.110;5.592;2022-12-07T01:37:03;6.63;;;0.98;;
62861;SDS011;48953;53.110;5.592;2022-12-07T01:39:29;5.90;;;0.65;;
62861;SDS011;48953;53.110;5.592;2022-12-07T01:41:55;6.53;;;0.90;;
62861;SDS011;48953;53.110;5.592;2022-12-07T01:44:30;10.05;;;0.90;;
62861;SDS011;48953;53.110;5.592;2022-12-07T01:47:04;6.45;;;0.73;;
62861;SDS011;48953;53.110;5.592;2022-12-07T01:54:43;1.45;;;0.43;;
62861;SDS011;48953;53.110;5.592;2022-12-07T01:57:10;1.80;;;0.40;;
62861;SDS011;48953;53.110;5.592;2022-12-07T01:59:37;3.40;;;0.30;;
62861;SDS011;48953;53.110;5.592;2022-12-07T02:02:04;0.95;;;0.00;;
62861;SDS011;48953;53.110;5.592;2022-12-07T02:04:33;2.97;;;0.60;;
62861;SDS011;48953;53.110;5.592;2022-12-07T02:06:59;0.73;;;0.10;;
62861;SDS011;48953;53.110;5.592;2022-12-07T02:09:25;0.30;;;0.20;;
62861;SDS011;48953;53.110;5.592;2022-12-07T02:11:51;2.78;;;0.57;;
62861;SDS011;48953;53.110;5.592;2022-12-07T02:14:17;6.88;;;1.13;;
62861;SDS011;48953;53.110;5.592;2022-12-07T02:21:46;3.80;;;0.40;;
62861;SDS011;48953;53.110;5.592;2022-12-07T02:24:24;6.00;;;0.85;;
62861;SDS011;48953;53.110;5.592;2022-12-07T02:29:49;3.70;;;0.47;;
62861;SDS011;48953;53.110;5.592;2022-12-07T02:34:49;3.38;;;0.50;;
62861;SDS011;48953;53.110;5.592;2022-12-07T02:38:00;7.05;;;0.82;;
62861;SDS011;48953;53.110;5.592;2022-12-07T02:40:16;6.05;;;0.77;;
62861;SDS011;48953;53.110;5.592;2022-12-07T02:42:45;4.50;;;0.43;;
62861;SDS011;48953;53.110;5.592;2022-12-07T02:45:13;8.48;;;0.68;;
62861;SDS011;48953;53.110;5.592;2022-12-07T02:47:41;3.83;;;0.30;;
62861;SDS011;48953;53.110;5.592;2022-12-07T02:50:07;3.05;;;0.50;;
62861;SDS011;48953;53.110;5.592;2022-12-07T02:52:33;5.50;;;0.80;;
62861;SDS011;48953;53.110;5.592;2022-12-07T02:54:59;4.88;;;0.60;;
62861;SDS011;48953;53.110;5.592;2022-12-07T03:00:05;4.25;;;0.65;;
62861;SDS011;48953;53.110;5.592;2022-12-07T03:07:49;8.55;;;0.77;;
62861;SDS011;48953;53.110;5.592;2022-12-07T03:13:07;5.50;;;0.68;;
62861;SDS011;48953;53.110;5.592;2022-12-07T03:16:18;2.83;;;0.43;;
62861;SDS011;48953;53.110;5.592;2022-12-07T03:18:24;2.88;;;0.32;;
62861;SDS011;48953;53.110;5.592;2022-12-07T03:20:52;10.45;;;1.58;;
62861;SDS011;48953;53.110;5.592;2022-12-07T03:23:19;2.28;;;0.60;;
62861;SDS011;48953;53.110;5.592;2022-12-07T03:25:47;2.90;;;1.10;;
62861;SDS011;48953;53.110;5.592;2022-12-07T03:28:15;3.47;;;0.65;;
62861;SDS011;48953;53.110;5.592;2022-12-07T03:30:52;3.60;;;0.73;;
62861;SDS011;48953;53.110;5.592;2022-12-07T03:33:22;9.45;;;0.98;;
62861;SDS011;48953;53.110;5.592;2022-12-07T03:35:56;4.78;;;0.47;;
62861;SDS011;48953;53.110;5.592;2022-12-07T03:38:31;2.97;;;0.60;;
62861;SDS011;48953;53.110;5.592;2022-12-07T03:41:02;8.73;;;0.57;;
62861;SDS011;48953;53.110;5.592;2022-12-07T03:43:29;2.03;;;0.40;;
62861;SDS011;48953;53.110;5.592;2022-12-07T03:48:41;3.42;;;0.45;;
62861;SDS011;48953;53.110;5.592;2022-12-07T03:53:46;4.15;;;0.38;;
62861;SDS011;48953;53.110;5.592;2022-12-07T03:56:14;3.05;;;0.30;;
62861;SDS011;48953;53.110;5.592;2022-12-07T03:58:40;3.38;;;1.35;;
62861;SDS011;48953;53.110;5.592;2022-12-07T04:01:07;1.98;;;0.50;;
62861;SDS011;48953;53.110;5.592;2022-12-07T04:03:33;0.55;;;0.20;;
62861;SDS011;48953;53.110;5.592;2022-12-07T04:05:59;5.13;;;0.63;;
62861;SDS011;48953;53.110;5.592;2022-12-07T04:08:25;5.50;;;0.50;;
62861;SDS011;48953;53.110;5.592;2022-12-07T04:10:51;3.28;;;0.40;;
62861;SDS011;48953;53.110;5.592;2022-12-07T04:13:17;2.92;;;0.40;;
62861;SDS011;48953;53.110;5.592;2022-12-07T04:15:43;3.08;;;0.50;;
62861;SDS011;48953;53.110;5.592;2022-12-07T04:18:09;4.30;;;0.65;;
62861;SDS011;48953;53.110;5.592;2022-12-07T04:20:35;5.97;;;0.82;;
62861;SDS011;48953;53.110;5.592;2022-12-07T04:23:01;4.43;;;0.50;;
62861;SDS011;48953;53.110;5.592;2022-12-07T04:25:27;6.20;;;0.70;;
62861;SDS011;48953;53.110;5.592;2022-12-07T04:27:53;6.78;;;0.80;;
62861;SDS011;48953;53.110;5.592;2022-12-07T04:30:19;2.90;;;0.45;;
62861;SDS011;48953;53.110;5.592;2022-12-07T04:32:45;7.32;;;1.58;;
62861;SDS011;48953;53.110;5.592;2022-12-07T04:35:11;4.82;;;0.68;;
62861;SDS011;48953;53.110;5.592;2022-12-07T04:37:37;8.63;;;0.85;;
62861;SDS011;48953;53.110;5.592;2022-12-07T04:40:05;8.85;;;0.82;;
62861;SDS011;48953;53.110;5.592;2022-12-07T04:42:32;4.93;;;0.80;;
62861;SDS011;48953;53.110;5.592;2022-12-07T04:44:58;10.80;;;0.88;;
62861;SDS011;48953;53.110;5.592;2022-12-07T04:47:24;5.75;;;1.00;;
62861;SDS011;48953;53.110;5.592;2022-12-07T04:49:50;7.60;;;0.82;;
62861;SDS011;48953;53.110;5.592;2022-12-07T04:52:16;4.00;;;0.30;;
62861;SDS011;48953;53.110;5.592;2022-12-07T04:54:42;3.20;;;0.40;;
62861;SDS011;48953;53.110;5.592;2022-12-07T04:57:09;1.67;;;0.30;;
62861;SDS011;48953;53.110;5.592;2022-12-07T04:59:35;2.25;;;0.32;;
62861;SDS011;48953;53.110;5.592;2022-12-07T05:02:01;4.05;;;0.30;;
62861;SDS011;48953;53.110;5.592;2022-12-07T05:04:27;7.60;;;0.75;;
62861;SDS011;48953;53.110;5.592;2022-12-07T05:06:53;2.15;;;0.82;;
62861;SDS011;48953;53.110;5.592;2022-12-07T05:09:19;5.38;;;0.60;;
62861;SDS011;48953;53.110;5.592;2022-12-07T05:11:45;0.95;;;0.20;;
62861;SDS011;48953;53.110;5.592;2022-12-07T05:14:13;1.35;;;0.25;;
62861;SDS011;48953;53.110;5.592;2022-12-07T05:16:39;0.77;;;0.13;;
62861;SDS011;48953;53.110;5.592;2022-12-07T05:19:06;3.20;;;0.50;;
62861;SDS011;48953;53.110;5.592;2022-12-07T05:21:32;5.15;;;0.60;;
62861;SDS011;48953;53.110;5.592;2022-12-07T05:23:58;3.47;;;0.38;;
62861;SDS011;48953;53.110;5.592;2022-12-07T05:26:24;3.05;;;0.40;;
62861;SDS011;48953;53.110;5.592;2022-12-07T05:28:51;3.75;;;0.80;;
62861;SDS011;48953;53.110;5.592;2022-12-07T05:31:17;4.22;;;0.60;;
62861;SDS011;48953;53.110;5.592;2022-12-07T05:33:43;3.95;;;0.47;;
62861;SDS011;48953;53.110;5.592;2022-12-07T05:36:09;4.75;;;0.55;;
62861;SDS011;48953;53.110;5.592;2022-12-07T05:38:35;5.30;;;0.93;;
62861;SDS011;48953;53.110;5.592;2022-12-07T05:41:02;5.78;;;0.70;;
62861;SDS011;48953;53.110;5.592;2022-12-07T05:43:28;7.78;;;0.63;;
62861;SDS011;48953;53.110;5.592;2022-12-07T05:45:54;3.28;;;0.60;;
62861;SDS011;48953;53.110;5.592;2022-12-07T05:48:20;6.97;;;0.55;;
62861;SDS011;48953;53.110;5.592;2022-12-07T05:50:49;1.95;;;0.50;;
62861;SDS011;48953;53.110;5.592;2022-12-07T05:53:15;5.53;;;0.85;;
62861;SDS011;48953;53.110;5.592;2022-12-07T05:55:41;4.25;;;0.55;;
62861;SDS011;48953;53.110;5.592;2022-12-07T05:58:07;5.25;;;0.77;;
62861;SDS011;48953;53.110;5.592;2022-12-07T06:00:54;8.02;;;0.85;;
62861;SDS011;48953;53.110;5.592;2022-12-07T06:03:20;7.20;;;1.58;;
62861;SDS011;48953;53.110;5.592;2022-12-07T06:05:46;2.05;;;0.70;;
62861;SDS011;48953;53.110;5.592;2022-12-07T06:08:12;6.20;;;0.80;;
62861;SDS011;48953;53.110;5.592;2022-12-07T06:10:39;7.45;;;1.25;;
62861;SDS011;48953;53.110;5.592;2022-12-07T06:13:06;6.22;;;0.70;;
62861;SDS011;48953;53.110;5.592;2022-12-07T06:15:32;6.82;;;0.55;;
62861;SDS011;48953;53.110;5.592;2022-12-07T06:17:58;9.95;;;1.00;;
62861;SDS011;48953;53.110;5.592;2022-12-07T06:20:24;6.00;;;0.93;;
62861;SDS011;48953;53.110;5.592;2022-12-07T06:22:50;5.32;;;0.65;;
62861;SDS011;48953;53.110;5.592;2022-12-07T06:25:16;5.93;;;0.90;;
62861;SDS011;48953;53.110;5.592;2022-12-07T06:27:42;5.18;;;1.00;;
62861;SDS011;48953;53.110;5.592;2022-12-07T06:30:08;14.13;;;1.15;;
62861;SDS011;48953;53.110;5.592;2022-12-07T06:32:35;3.05;;;0.30;;
62861;SDS011;48953;53.110;5.592;2022-12-07T06:35:02;3.95;;;0.52;;
62861;SDS011;48953;53.110;5.592;2022-12-07T06:37:28;4.60;;;0.52;;
62861;SDS011;48953;53.110;5.592;2022-12-07T06:39:54;17.48;;;1.90;;
62861;SDS011;48953;53.110;5.592;2022-12-07T06:42:20;5.22;;;1.08;;
62861;SDS011;48953;53.110;5.592;2022-12-07T06:44:46;8.20;;;0.77;;
62861;SDS011;48953;53.110;5.592;2022-12-07T06:47:12;0.52;;;0.20;;
62861;SDS011;48953;53.110;5.592;2022-12-07T06:49:38;5.55;;;0.50;;
62861;SDS011;48953;53.110;5.592;2022-12-07T06:52:04;9.95;;;0.93;;
62861;SDS011;48953;53.110;5.592;2022-12-07T06:54:30;3.53;;;0.50;;
62861;SDS011;48953;53.110;5.592;2022-12-07T06:56:56;8.57;;;0.95;;
62861;SDS011;48953;53.110;5.592;2022-12-07T06:59:22;4.05;;;0.50;;
62861;SDS011;48953;53.110;5.592;2022-12-07T07:01:48;6.40;;;0.70;;
62861;SDS011;48953;53.110;5.592;2022-12-07T07:04:14;6.38;;;0.60;;
62861;SDS011;48953;53.110;5.592;2022-12-07T07:06:40;3.80;;;0.75;;
62861;SDS011;48953;53.110;5.592;2022-12-07T07:09:06;4.13;;;0.47;;
62861;SDS011;48953;53.110;5.592;2022-12-07T07:11:34;5.13;;;0.63;;
62861;SDS011;48953;53.110;5.592;2022-12-07T07:14:00;1.88;;;0.43;;
62861;SDS011;48953;53.110;5.592;2022-12-07T07:16:27;2.40;;;0.40;;
62861;SDS011;48953;53.110;5.592;2022-12-07T07:18:54;2.67;;;0.60;;
62861;SDS011;48953;53.110;5.592;2022-12-07T07:21:20;1.27;;;0.40;;
62861;SDS011;48953;53.110;5.592;2022-12-07T07:23:46;9.98;;;1.63;;
62861;SDS011;48953;53.110;5.592;2022-12-07T07:26:12;7.57;;;1.00;;
62861;SDS011;48953;53.110;5.592;2022-12-07T07:28:38;4.90;;;0.68;;
62861;SDS011;48953;53.110;5.592;2022-12-07T07:31:04;3.10;;;0.60;;
62861;SDS011;48953;53.110;5.592;2022-12-07T07:33:30;9.70;;;0.70;;
62861;SDS011;48953;53.110;5.592;2022-12-07T07:35:56;6.80;;;0.77;;
62861;SDS011;48953;53.110;5.592;2022-12-07T07:38:22;7.10;;;0.75;;
62861;SDS011;48953;53.110;5.592;2022-12-07T07:40:48;3.95;;;0.52;;
62861;SDS011;48953;53.110;5.592;2022-12-07T07:43:14;5.53;;;0.70;;
62861;SDS011;48953;53.110;5.592;2022-12-07T07:45:40;4.60;;;0.65;;
62861;SDS011;48953;53.110;5.592;2022-12-07T07:48:06;7.68;;;1.15;;
62861;SDS011;48953;53.110;5.592;2022-12-07T07:50:32;5.18;;;0.70;;
62861;SDS011;48953;53.110;5.592;2022-12-07T07:52:58;6.55;;;0.75;;
62861;SDS011;48953;53.110;5.592;2022-12-07T07:55:24;3.60;;;0.80;;
62861;SDS011;48953;53.110;5.592;2022-12-07T07:57:50;4.13;;;0.60;;
62861;SDS011;48953;53.110;5.592;2022-12-07T08:00:16;4.35;;;0.55;;
62861;SDS011;48953;53.110;5.592;2022-12-07T08:02:42;4.43;;;0.85;;
62861;SDS011;48953;53.110;5.592;2022-12-07T08:05:10;3.83;;;0.50;;
62861;SDS011;48953;53.110;5.592;2022-12-07T08:07:36;3.13;;;0.73;;
62861;SDS011;48953;53.110;5.592;2022-12-07T08:10:02;3.15;;;0.82;;
62861;SDS011;48953;53.110;5.592;2022-12-07T08:12:29;7.97;;;0.70;;
62861;SDS011;48953;53.110;5.592;2022-12-07T08:14:54;5.95;;;0.90;;
62861;SDS011;48953;53.110;5.592;2022-12-07T08:17:20;7.10;;;1.10;;
62861;SDS011;48953;53.110;5.592;2022-12-07T08:19:46;4.32;;;0.60;;
62861;SDS011;48953;53.110;5.592;2022-12-07T08:22:12;0.52;;;0.43;;
62861;SDS011;48953;53.110;5.592;2022-12-07T08:24:38;2.33;;;0.60;;
62861;SDS011;48953;53.110;5.592;2022-12-07T08:27:04;7.50;;;0.75;;
62861;SDS011;48953;53.110;5.592;2022-12-07T08:29:30;3.85;;;0.65;;
62861;SDS011;48953;53.110;5.592;2022-12-07T08:31:57;3.65;;;0.80;;
62861;SDS011;48953;53.110;5.592;2022-12-07T08:34:23;1.73;;;0.40;;
62861;SDS011;48953;53.110;5.592;2022-12-07T08:36:49;2.03;;;0.70;;
62861;SDS011;48953;53.110;5.592;2022-12-07T08:39:15;2.47;;;0.73;;
62861;SDS011;48953;53.110;5.592;2022-12-07T08:41:41;3.72;;;0.38;;
62861;SDS011;48953;53.110;5.592;2022-12-07T08:44:07;4.20;;;0.40;;
62861;SDS011;48953;53.110;5.592;2022-12-07T08:51:31;2.78;;;0.40;;
62861;SDS011;48953;53.110;5.592;2022-12-07T08:53:57;4.00;;;0.50;;
62861;SDS011;48953;53.110;5.592;2022-12-07T08:56:24;1.42;;;0.90;;
62861;SDS011;48953;53.110;5.592;2022-12-07T08:58:50;3.38;;;0.80;;
62861;SDS011;48953;53.110;5.592;2022-12-07T09:01:16;3.35;;;1.00;;
62861;SDS011;48953;53.110;5.592;2022-12-07T09:03:42;6.47;;;0.82;;
62861;SDS011;48953;53.110;5.592;2022-12-07T09:06:08;2.65;;;1.05;;
62861;SDS011;48953;53.110;5.592;2022-12-07T09:08:38;5.65;;;0.90;;
62861;SDS011;48953;53.110;5.592;2022-12-07T09:11:05;5.97;;;1.60;;
62861;SDS011;48953;53.110;5.592;2022-12-07T09:13:31;5.00;;;1.02;;
62861;SDS011;48953;53.110;5.592;2022-12-07T09:15:57;6.60;;;1.45;;
62861;SDS011;48953;53.110;5.592;2022-12-07T09:18:23;6.63;;;1.75;;
62861;SDS011;48953;53.110;5.592;2022-12-07T09:20:49;7.20;;;1.70;;
62861;SDS011;48953;53.110;5.592;2022-12-07T09:23:15;5.75;;;1.45;;
62861;SDS011;48953;53.110;5.592;2022-12-07T09:25:41;6.93;;;1.65;;
62861;SDS011;48953;53.110;5.592;2022-12-07T09:28:07;6.10;;;1.50;;
62861;SDS011;48953;53.110;5.592;2022-12-07T09:30:33;3.67;;;1.00;;
62861;SDS011;48953;53.110;5.592;2022-12-07T09:32:59;4.65;;;1.13;;
62861;SDS011;48953;53.110;5.592;2022-12-07T09:35:26;8.55;;;0.95;;
62861;SDS011;48953;53.110;5.592;2022-12-07T09:37:52;4.70;;;0.90;;
62861;SDS011;48953;53.110;5.592;2022-12-07T09:40:18;6.47;;;1.63;;
62861;SDS011;48953;53.110;5.592;2022-12-07T09:42:47;10.63;;;2.58;;
62861;SDS011;48953;53.110;5.592;2022-12-07T09:45:21;5.20;;;1.00;;
62861;SDS011;48953;53.110;5.592;2022-12-07T09:47:47;4.95;;;1.20;;
62861;SDS011;48953;53.110;5.592;2022-12-07T09:50:15;5.72;;;1.20;;
62861;SDS011;48953;53.110;5.592;2022-12-07T09:52:43;2.22;;;0.73;;
62861;SDS011;48953;53.110;5.592;2022-12-07T09:55:11;6.53;;;1.15;;
62861;SDS011;48953;53.110;5.592;2022-12-07T09:57:37;10.40;;;1.52;;
62861;SDS011;48953;53.110;5.592;2022-12-07T10:00:05;5.65;;;0.80;;
62861;SDS011;48953;53.110;5.592;2022-12-07T10:04:58;4.75;;;1.15;;
62861;SDS011;48953;53.110;5.592;2022-12-07T10:07:24;7.75;;;1.42;;
62861;SDS011;48953;53.110;5.592;2022-12-07T10:09:50;5.85;;;1.10;;
62861;SDS011;48953;53.110;5.592;2022-12-07T10:12:16;4.40;;;0.80;;
62861;SDS011;48953;53.110;5.592;2022-12-07T10:14:56;2.45;;;0.30;;
62861;SDS011;48953;53.110;5.592;2022-12-07T10:17:29;2.38;;;0.30;;
62861;SDS011;48953;53.110;5.592;2022-12-07T10:20:12;3.72;;;0.57;;
62861;SDS011;48953;53.110;5.592;2022-12-07T10:22:41;3.15;;;0.77;;
62861;SDS011;48953;53.110;5.592;2022-12-07T10:25:20;2.05;;;0.30;;
62861;SDS011;48953;53.110;5.592;2022-12-07T10:27:57;1.35;;;0.30;;
62861;SDS011;48953;53.110;5.592;2022-12-07T10:30:23;4.35;;;0.40;;
62861;SDS011;48953;53.110;5.592;2022-12-07T10:32:49;4.28;;;0.45;;
62861;SDS011;48953;53.110;5.592;2022-12-07T10:35:24;2.60;;;0.30;;
62861;SDS011;48953;53.110;5.592;2022-12-07T10:37:51;2.78;;;0.43;;
62861;SDS011;48953;53.110;5.592;2022-12-07T10:40:30;7.75;;;0.93;;
62861;SDS011;48953;53.110;5.592;2022-12-07T10:45:30;3.92;;;1.00;;
62861;SDS011;48953;53.110;5.592;2022-12-07T10:53:27;3.60;;;0.70;;
62861;SDS011;48953;53.110;5.592;2022-12-07T10:58:36;6.13;;;1.10;;
62861;SDS011;48953;53.110;5.592;2022-12-07T11:09:44;3.38;;;0.60;;
62861;SDS011;48953;53.110;5.592;2022-12-07T11:12:25;2.35;;;0.40;;
62861;SDS011;48953;53.110;5.592;2022-12-07T11:15:07;3.85;;;0.82;;
62861;SDS011;48953;53.110;5.592;2022-12-07T11:25:32;2.83;;;0.60;;
62861;SDS011;48953;53.110;5.592;2022-12-07T11:40:38;4.60;;;0.60;;
62861;SDS011;48953;53.110;5.592;2022-12-07T11:45:33;3.03;;;0.50;;
62861;SDS011;48953;53.110;5.592;2022-12-07T11:48:02;4.18;;;0.57;;
62861;SDS011;48953;53.110;5.592;2022-12-07T11:50:33;7.03;;;0.85;;
62861;SDS011;48953;53.110;5.592;2022-12-07T12:03:33;6.55;;;0.88;;
62861;SDS011;48953;53.110;5.592;2022-12-07T12:05:59;8.32;;;1.55;;
62861;SDS011;48953;53.110;5.592;2022-12-07T12:21:28;3.38;;;0.50;;
62861;SDS011;48953;53.110;5.592;2022-12-07T12:23:56;3.42;;;0.40;;
62861;SDS011;48953;53.110;5.592;2022-12-07T12:26:25;2.67;;;0.80;;
62861;SDS011;48953;53.110;5.592;2022-12-07T12:28:58;3.78;;;0.82;;
62861;SDS011;48953;53.110;5.592;2022-12-07T12:31:35;5.22;;;1.05;;
62861;SDS011;48953;53.110;5.592;2022-12-07T12:34:10;7.68;;;0.93;;
62861;SDS011;48953;53.110;5.592;2022-12-07T12:36:49;2.55;;;1.00;;
62861;SDS011;48953;53.110;5.592;2022-12-07T12:39:18;4.35;;;1.00;;
62861;SDS011;48953;53.110;5.592;2022-12-07T12:45:02;4.15;;;0.77;;
62861;SDS011;48953;53.110;5.592;2022-12-07T12:47:01;4.05;;;0.88;;
62861;SDS011;48953;53.110;5.592;2022-12-07T12:51:54;3.85;;;0.80;;
62861;SDS011;48953;53.110;5.592;2022-12-07T12:54:24;6.53;;;0.73;;
62861;SDS011;48953;53.110;5.592;2022-12-07T12:59:33;3.50;;;0.95;;
62861;SDS011;48953;53.110;5.592;2022-12-07T13:10:00;3.42;;;0.80;;
62861;SDS011;48953;53.110;5.592;2022-12-07T13:12:27;3.55;;;0.68;;
62861;SDS011;48953;53.110;5.592;2022-12-07T13:14:54;1.77;;;0.32;;
62861;SDS011;48953;53.110;5.592;2022-12-07T13:27:24;5.32;;;0.95;;
62861;SDS011;48953;53.110;5.592;2022-12-07T13:29:51;1.85;;;0.30;;
62861;SDS011;48953;53.110;5.592;2022-12-07T13:32:23;1.10;;;0.30;;
62861;SDS011;48953;53.110;5.592;2022-12-07T13:34:49;5.22;;;0.43;;
62861;SDS011;48953;53.110;5.592;2022-12-07T13:39:49;2.05;;;0.30;;
62861;SDS011;48953;53.110;5.592;2022-12-07T13:44:47;0.28;;;0.20;;
62861;SDS011;48953;53.110;5.592;2022-12-07T13:49:49;1.75;;;0.22;;
62861;SDS011;48953;53.110;5.592;2022-12-07T13:52:20;0.77;;;0.20;;
62861;SDS011;48953;53.110;5.592;2022-12-07T13:57:32;4.18;;;0.85;;
62861;SDS011;48953;53.110;5.592;2022-12-07T14:00:00;2.22;;;0.70;;
62861;SDS011;48953;53.110;5.592;2022-12-07T14:02:27;3.67;;;1.00;;
62861;SDS011;48953;53.110;5.592;2022-12-07T14:05:07;6.38;;;1.50;;
62861;SDS011;48953;53.110;5.592;2022-12-07T14:07:33;2.22;;;0.65;;
62861;SDS011;48953;53.110;5.592;2022-12-07T14:10:02;2.63;;;0.93;;
62861;SDS011;48953;53.110;5.592;2022-12-07T14:12:29;3.17;;;0.50;;
62861;SDS011;48953;53.110;5.592;2022-12-07T14:14:56;5.35;;;1.60;;
62861;SDS011;48953;53.110;5.592;2022-12-07T14:17:25;3.67;;;1.10;;
62861;SDS011;48953;53.110;5.592;2022-12-07T14:19:53;4.88;;;1.73;;
62861;SDS011;48953;53.110;5.592;2022-12-07T14:24:49;9.85;;;4.22;;
62861;SDS011;48953;53.110;5.592;2022-12-07T14:27:19;6.10;;;3.10;;
62861;SDS011;48953;53.110;5.592;2022-12-07T14:29:46;4.38;;;1.70;;
62861;SDS011;48953;53.110;5.592;2022-12-07T14:32:20;3.97;;;1.20;;
62861;SDS011;48953;53.110;5.592;2022-12-07T14:34:54;2.35;;;0.50;;
62861;SDS011;48953;53.110;5.592;2022-12-07T14:37:20;1.40;;;0.47;;
62861;SDS011;48953;53.110;5.592;2022-12-07T14:39:46;1.92;;;0.50;;
62861;SDS011;48953;53.110;5.592;2022-12-07T14:42:12;4.72;;;0.70;;
62861;SDS011;48953;53.110;5.592;2022-12-07T14:44:38;1.42;;;0.77;;
62861;SDS011;48953;53.110;5.592;2022-12-07T14:47:04;4.22;;;1.83;;
62861;SDS011;48953;53.110;5.592;2022-12-07T14:49:30;1.80;;;1.30;;
62861;SDS011;48953;53.110;5.592;2022-12-07T14:51:56;3.03;;;1.05;;
62861;SDS011;48953;53.110;5.592;2022-12-07T14:54:22;2.45;;;1.10;;
62861;SDS011;48953;53.110;5.592;2022-12-07T14:56:50;1.92;;;0.80;;
62861;SDS011;48953;53.110;5.592;2022-12-07T14:59:17;2.58;;;1.17;;
62861;SDS011;48953;53.110;5.592;2022-12-07T15:01:43;2.13;;;1.10;;
62861;SDS011;48953;53.110;5.592;2022-12-07T15:04:09;3.80;;;1.10;;
62861;SDS011;48953;53.110;5.592;2022-12-07T15:06:35;2.20;;;1.50;;
62861;SDS011;48953;53.110;5.592;2022-12-07T15:09:02;4.57;;;1.45;;
62861;SDS011;48953;53.110;5.592;2022-12-07T15:11:28;5.38;;;1.80;;
62861;SDS011;48953;53.110;5.592;2022-12-07T15:13:54;7.15;;;1.67;;
62861;SDS011;48953;53.110;5.592;2022-12-07T15:16:32;2.70;;;0.57;;
62861;SDS011;48953;53.110;5.592;2022-12-07T15:18:58;3.63;;;0.40;;
62861;SDS011;48953;53.110;5.592;2022-12-07T15:21:24;2.05;;;0.50;;
62861;SDS011;48953;53.110;5.592;2022-12-07T15:23:50;2.50;;;0.22;;
62861;SDS011;48953;53.110;5.592;2022-12-07T15:26:16;3.30;;;0.70;;
62861;SDS011;48953;53.110;5.592;2022-12-07T15:28:43;3.15;;;0.60;;
62861;SDS011;48953;53.110;5.592;2022-12-07T15:31:12;4.05;;;0.65;;
62861;SDS011;48953;53.110;5.592;2022-12-07T15:33:38;3.95;;;0.80;;
62861;SDS011;48953;53.110;5.592;2022-12-07T15:36:04;4.65;;;1.00;;
62861;SDS011;48953;53.110;5.592;2022-12-07T15:38:31;2.53;;;1.02;;
62861;SDS011;48953;53.110;5.592;2022-12-07T15:40:57;3.25;;;1.10;;
62861;SDS011;48953;53.110;5.592;2022-12-07T15:43:23;3.38;;;1.30;;
62861;SDS011;48953;53.110;5.592;2022-12-07T15:46:08;4.63;;;0.80;;
62861;SDS011;48953;53.110;5.592;2022-12-07T15:48:34;3.97;;;0.70;;
62861;SDS011;48953;53.110;5.592;2022-12-07T15:51:03;1.90;;;1.13;;
62861;SDS011;48953;53.110;5.592;2022-12-07T15:53:29;2.42;;;0.98;;
62861;SDS011;48953;53.110;5.592;2022-12-07T15:55:56;4.65;;;0.80;;
62861;SDS011;48953;53.110;5.592;2022-12-07T15:58:21;2.17;;;1.02;;
62861;SDS011;48953;53.110;5.592;2022-12-07T16:00:47;6.10;;;1.88;;
62861;SDS011;48953;53.110;5.592;2022-12-07T16:03:14;3.15;;;1.88;;
62861;SDS011;48953;53.110;5.592;2022-12-07T16:05:40;7.25;;;4.57;;
62861;SDS011;48953;53.110;5.592;2022-12-07T16:08:06;18.77;;;10.88;;
62861;SDS011;48953;53.110;5.592;2022-12-07T16:10:32;14.45;;;7.75;;
62861;SDS011;48953;53.110;5.592;2022-12-07T16:12:58;6.82;;;3.45;;
62861;SDS011;48953;53.110;5.592;2022-12-07T16:15:24;11.15;;;4.30;;
62861;SDS011;48953;53.110;5.592;2022-12-07T16:17:51;12.13;;;6.13;;
62861;SDS011;48953;53.110;5.592;2022-12-07T16:20:18;14.70;;;6.03;;
62861;SDS011;48953;53.110;5.592;2022-12-07T16:22:44;8.18;;;4.55;;
62861;SDS011;48953;53.110;5.592;2022-12-07T16:25:10;8.60;;;2.15;;
62861;SDS011;48953;53.110;5.592;2022-12-07T16:27:36;6.82;;;1.08;;
62861;SDS011;48953;53.110;5.592;2022-12-07T16:30:02;8.18;;;1.25;;
62861;SDS011;48953;53.110;5.592;2022-12-07T16:32:28;9.25;;;1.00;;
62861;SDS011;48953;53.110;5.592;2022-12-07T16:34:54;4.68;;;1.02;;
62861;SDS011;48953;53.110;5.592;2022-12-07T16:37:20;4.18;;;0.50;;
62861;SDS011;48953;53.110;5.592;2022-12-07T16:39:46;7.10;;;0.60;;
62861;SDS011;48953;53.110;5.592;2022-12-07T16:42:12;5.20;;;0.60;;
62861;SDS011;48953;53.110;5.592;2022-12-07T16:44:38;2.88;;;0.65;;
62861;SDS011;48953;53.110;5.592;2022-12-07T16:47:05;5.88;;;0.50;;
62861;SDS011;48953;53.110;5.592;2022-12-07T16:49:31;2.78;;;0.50;;
62861;SDS011;48953;53.110;5.592;2022-12-07T16:51:57;6.75;;;0.60;;
62861;SDS011;48953;53.110;5.592;2022-12-07T16:54:23;4.93;;;0.60;;
62861;SDS011;48953;53.110;5.592;2022-12-07T16:56:49;7.22;;;0.85;;
62861;SDS011;48953;53.110;5.592;2022-12-07T16:59:15;3.75;;;0.63;;
62861;SDS011;48953;53.110;5.592;2022-12-07T17:01:41;3.10;;;0.50;;
62861;SDS011;48953;53.110;5.592;2022-12-07T17:04:07;3.38;;;0.63;;
62861;SDS011;48953;53.110;5.592;2022-12-07T17:06:33;6.78;;;0.98;;
62861;SDS011;48953;53.110;5.592;2022-12-07T17:08:59;6.30;;;1.40;;
62861;SDS011;48953;53.110;5.592;2022-12-07T17:11:26;9.95;;;2.67;;
62861;SDS011;48953;53.110;5.592;2022-12-07T17:13:53;13.90;;;3.28;;
62861;SDS011;48953;53.110;5.592;2022-12-07T17:16:38;8.77;;;2.53;;